createdAt,value
2016-04-24T00:00:43.986Z,0
2016-04-24T00:01:43.770Z,0
2016-04-24T00:02:43.867Z,0
2016-04-24T00:03:43.822Z,0
2016-04-24T00:04:43.794Z,0
2016-04-24T00:05:43.812Z,0
2016-04-24T00:06:43.939Z,0
2016-04-24T00:07:43.506Z,0
2016-04-24T00:08:43.774Z,0
2016-04-24T00:09:43.791Z,0
2016-04-24T00:10:43.748Z,0
2016-04-24T00:11:43.766Z,0
2016-04-24T00:12:43.799Z,0
2016-04-24T00:13:43.850Z,0
2016-04-24T00:14:43.040Z,0
2016-04-24T00:15:43.855Z,0
2016-04-24T00:16:43.904Z,0
2016-04-24T00:17:43.719Z,0
2016-04-24T00:18:43.832Z,0
2016-04-24T00:19:43.693Z,0
2016-04-24T00:20:43.759Z,0
2016-04-24T00:21:44.090Z,0
2016-04-24T00:22:47.701Z,0
2016-04-24T00:23:43.705Z,0
2016-04-24T00:24:43.770Z,0
2016-04-24T00:25:43.740Z,0
2016-04-24T00:26:43.744Z,0
2016-04-24T00:27:43.934Z,0
2016-04-24T00:28:43.733Z,0
2016-04-24T00:29:43.690Z,0
2016-04-24T00:30:43.692Z,0
2016-04-24T00:31:43.726Z,0
2016-04-24T00:32:43.666Z,0
2016-04-24T00:33:43.778Z,0
2016-04-24T00:34:43.797Z,0
2016-04-24T00:35:43.642Z,0
2016-04-24T00:36:43.661Z,0
2016-04-24T00:37:43.602Z,0
2016-04-24T00:38:43.744Z,0
2016-04-24T00:39:43.686Z,0
2016-04-24T00:40:43.625Z,0
2016-04-24T00:41:43.658Z,0
2016-04-24T00:42:43.678Z,0
2016-04-24T00:43:43.618Z,0
2016-04-24T00:44:43.541Z,0
2016-04-24T00:45:43.733Z,0
2016-04-24T00:46:43.532Z,0
2016-04-24T00:47:43.644Z,0
2016-04-24T00:48:43.693Z,0
2016-04-24T00:49:43.696Z,0
2016-04-24T00:50:43.637Z,0
2016-04-24T00:51:43.654Z,0
2016-04-24T00:52:44.126Z,0
2016-04-24T00:53:43.691Z,0
2016-04-24T00:54:43.662Z,0
2016-04-24T00:55:43.619Z,0
2016-04-24T00:56:43.574Z,0
2016-04-24T00:57:43.608Z,0
2016-04-24T00:58:43.830Z,0
2016-04-24T00:59:43.645Z,0
2016-04-24T01:00:43.584Z,0
2016-04-24T01:01:43.588Z,0
2016-04-24T01:02:43.684Z,0
2016-04-24T01:03:43.562Z,0
2016-04-24T01:04:43.565Z,0
2016-04-24T01:05:43.677Z,0
2016-04-24T01:06:43.539Z,0
2016-04-24T01:07:43.728Z,0
2016-04-24T01:08:43.560Z,0
2016-04-24T01:09:43.469Z,0
2016-04-24T01:10:43.580Z,0
2016-04-24T01:11:42.850Z,0
2016-04-24T01:12:43.477Z,0
2016-04-24T01:13:43.526Z,0
2016-04-24T01:14:43.483Z,0
2016-04-24T01:15:43.532Z,0
2016-04-24T01:16:43.471Z,0
2016-04-24T01:17:43.538Z,0
2016-04-24T01:18:43.524Z,0
2016-04-24T01:19:43.480Z,0
2016-04-24T01:20:43.514Z,0
2016-04-24T01:21:43.438Z,0
2016-04-24T01:22:44.068Z,0
2016-04-24T01:23:43.477Z,0
2016-04-24T01:24:43.573Z,0
2016-04-24T01:25:43.514Z,0
2016-04-24T01:26:43.422Z,0
2016-04-24T01:27:43.535Z,0
2016-04-24T01:28:43.459Z,0
2016-04-24T01:29:43.431Z,0
2016-04-24T01:30:43.528Z,0
2016-04-24T01:31:43.467Z,0
2016-04-24T01:32:43.361Z,0
2016-04-24T01:33:43.410Z,0
2016-04-24T01:34:43.460Z,0
2016-04-24T01:35:43.400Z,0
2016-04-24T01:36:43.028Z,0
2016-04-24T01:37:43.718Z,0
2016-04-24T01:38:43.346Z,0
2016-04-24T01:39:43.410Z,0
2016-04-24T01:40:43.444Z,0
2016-04-24T01:41:43.338Z,0
2016-04-24T01:42:43.418Z,0
2016-04-24T01:43:43.391Z,0
2016-04-24T01:44:43.362Z,0
2016-04-24T01:45:43.380Z,0
2016-04-24T01:46:43.399Z,0
2016-04-24T01:47:43.385Z,0
2016-04-24T01:48:43.279Z,0
2016-04-24T01:49:43.281Z,0
2016-04-24T01:50:43.315Z,0
2016-04-24T01:51:43.303Z,0
2016-04-24T01:52:43.681Z,0
2016-04-24T01:53:43.435Z,0
2016-04-24T01:54:43.447Z,0
2016-04-24T01:55:43.506Z,0
2016-04-24T01:56:43.424Z,0
2016-04-24T01:57:43.546Z,0
2016-04-24T01:58:43.488Z,0
2016-04-24T01:59:43.615Z,0
2016-04-24T02:00:43.648Z,0
2016-04-24T02:01:43.494Z,0
2016-04-24T02:02:43.526Z,0
2016-04-24T02:03:43.504Z,0
2016-04-24T02:04:43.669Z,0
2016-04-24T02:05:43.583Z,0
2016-04-24T02:06:43.591Z,0
2016-04-24T02:07:43.442Z,0
2016-04-24T02:08:43.479Z,0
2016-04-24T02:09:43.609Z,0
2016-04-24T02:10:43.598Z,0
2016-04-24T02:11:43.602Z,0
2016-04-24T02:12:43.685Z,0
2016-04-24T02:13:43.502Z,0
2016-04-24T02:14:43.552Z,0
2016-04-24T02:15:43.476Z,0
2016-04-24T02:16:43.667Z,0
2016-04-24T02:17:43.498Z,0
2016-04-24T02:18:43.500Z,0
2016-04-24T02:19:43.520Z,0
2016-04-24T02:20:43.554Z,0
2016-04-24T02:21:43.479Z,0
2016-04-24T02:22:43.451Z,0
2016-04-24T02:23:43.516Z,0
2016-04-24T02:24:43.519Z,0
2016-04-24T02:25:43.537Z,0
2016-04-24T02:26:43.571Z,0
2016-04-24T02:27:43.480Z,0
2016-04-24T02:28:43.529Z,0
2016-04-24T02:29:43.470Z,0
2016-04-24T02:30:43.473Z,0
2016-04-24T02:31:43.506Z,0
2016-04-24T02:32:43.493Z,0
2016-04-24T02:33:43.465Z,0
2016-04-24T02:34:42.623Z,0
2016-04-24T02:35:43.626Z,0
2016-04-24T02:36:43.395Z,0
2016-04-24T02:37:43.959Z,0
2016-04-24T02:38:43.510Z,0
2016-04-24T02:39:43.481Z,0
2016-04-24T02:40:43.484Z,0
2016-04-24T02:41:43.408Z,0
2016-04-24T02:42:43.380Z,0
2016-04-24T02:43:43.413Z,0
2016-04-24T02:44:43.431Z,0
2016-04-24T02:45:43.372Z,0
2016-04-24T02:46:43.469Z,0
2016-04-24T02:47:43.472Z,0
2016-04-24T02:48:43.411Z,0
2016-04-24T02:49:43.289Z,0
2016-04-24T02:50:43.401Z,0
2016-04-24T02:51:43.388Z,0
2016-04-24T02:52:43.594Z,0
2016-04-24T02:53:43.393Z,0
2016-04-24T02:54:43.366Z,0
2016-04-24T02:55:43.305Z,0
2016-04-24T02:56:43.401Z,0
2016-04-24T02:57:43.295Z,0
2016-04-24T02:58:43.329Z,0
2016-04-24T02:59:43.347Z,0
2016-04-24T03:00:43.271Z,0
2016-04-24T03:01:43.337Z,0
2016-04-24T03:02:43.401Z,0
2016-04-24T03:03:43.404Z,0
2016-04-24T03:04:43.298Z,0
2016-04-24T03:05:43.316Z,0
2016-04-24T03:06:43.335Z,0
2016-04-24T03:07:44.040Z,0
2016-04-24T03:08:43.340Z,0
2016-04-24T03:09:43.312Z,0
2016-04-24T03:10:43.345Z,0
2016-04-24T03:11:43.270Z,0
2016-04-24T03:12:43.382Z,0
2016-04-24T03:13:43.322Z,0
2016-04-24T03:14:43.341Z,0
2016-04-24T03:15:43.344Z,0
2016-04-24T03:16:43.268Z,0
2016-04-24T03:17:43.192Z,0
2016-04-24T03:18:43.289Z,0
2016-04-24T03:19:43.245Z,0
2016-04-24T03:20:43.044Z,0
2016-04-24T03:21:43.266Z,0
2016-04-24T03:22:46.362Z,0
2016-04-24T03:23:43.177Z,0
2016-04-24T03:24:43.274Z,0
2016-04-24T03:25:43.339Z,0
2016-04-24T03:26:43.138Z,0
2016-04-24T03:27:43.172Z,0
2016-04-24T03:28:43.128Z,0
2016-04-24T03:29:43.209Z,0
2016-04-24T03:30:43.196Z,0
2016-04-24T03:31:43.152Z,0
2016-04-24T03:32:43.170Z,0
2016-04-24T03:33:43.173Z,0
2016-04-24T03:34:43.176Z,0
2016-04-24T03:35:43.240Z,0
2016-04-24T03:36:43.118Z,0
2016-04-24T03:37:42.918Z,0
2016-04-24T03:38:43.201Z,0
2016-04-24T03:39:43.204Z,0
2016-04-24T03:40:43.145Z,0
2016-04-24T03:41:43.147Z,0
2016-04-24T03:42:43.150Z,4
2016-04-24T03:43:43.090Z,4
2016-04-24T03:44:43.156Z,4
2016-04-24T03:45:43.175Z,0
2016-04-24T03:46:43.114Z,0
2016-04-24T03:47:43.085Z,4
2016-04-24T03:48:43.058Z,4
2016-04-24T03:49:43.060Z,0
2016-04-24T03:50:43.203Z,4
2016-04-24T03:51:43.127Z,4
2016-04-24T03:52:43.739Z,4
2016-04-24T03:53:44.507Z,4
2016-04-24T03:54:43.089Z,8
2016-04-24T03:55:43.186Z,8
2016-04-24T03:56:43.047Z,12
2016-04-24T03:57:43.143Z,8
2016-04-24T03:58:43.038Z,12
2016-04-24T03:59:42.992Z,12
2016-04-24T04:00:43.074Z,16
2016-04-24T04:01:43.092Z,20
2016-04-24T04:02:43.032Z,24
2016-04-24T04:03:43.034Z,28
2016-04-24T04:04:43.069Z,28
2016-04-24T04:05:43.181Z,32
2016-04-24T04:06:43.012Z,36
2016-04-24T04:07:43.061Z,44
2016-04-24T04:08:43.314Z,48
2016-04-24T04:09:42.957Z,60
2016-04-24T04:10:43.070Z,60
2016-04-24T04:11:42.978Z,72
2016-04-24T04:12:42.981Z,80
2016-04-24T04:13:43.045Z,92
2016-04-24T04:14:42.893Z,100
2016-04-24T04:15:43.098Z,116
2016-04-24T04:16:43.086Z,128
2016-04-24T04:17:42.916Z,140
2016-04-24T04:18:42.966Z,156
2016-04-24T04:19:42.969Z,172
2016-04-24T04:20:42.956Z,192
2016-04-24T04:21:42.942Z,208
2016-04-24T04:22:42.820Z,224
2016-04-24T04:23:44.182Z,252
2016-04-24T04:24:42.997Z,276
2016-04-24T04:25:42.907Z,308
2016-04-24T04:26:42.894Z,336
2016-04-24T04:27:42.958Z,372
2016-04-24T04:28:42.915Z,404
2016-04-24T04:29:42.918Z,440
2016-04-24T04:30:43.013Z,476
2016-04-24T04:31:42.891Z,508
2016-04-24T04:32:42.926Z,548
2016-04-24T04:33:42.865Z,588
2016-04-24T04:34:42.837Z,628
2016-04-24T04:35:42.980Z,676
2016-04-24T04:36:42.842Z,716
2016-04-24T04:37:42.876Z,760
2016-04-24T04:38:42.707Z,792
2016-04-24T04:39:42.788Z,832
2016-04-24T04:40:42.978Z,872
2016-04-24T04:41:42.793Z,900
2016-04-24T04:42:42.889Z,936
2016-04-24T04:43:42.814Z,1016
2016-04-24T04:44:42.817Z,1072
2016-04-24T04:45:42.882Z,1096
2016-04-24T04:46:42.775Z,1144
2016-04-24T04:47:42.762Z,1192
2016-04-24T04:48:42.781Z,1256
2016-04-24T04:49:42.768Z,1320
2016-04-24T04:50:42.958Z,1408
2016-04-24T04:51:42.836Z,1480
2016-04-24T04:52:42.807Z,1536
2016-04-24T04:53:43.357Z,1492
2016-04-24T04:54:42.797Z,1468
2016-04-24T04:55:42.830Z,1524
2016-04-24T04:56:42.818Z,1576
2016-04-24T04:57:42.696Z,1680
2016-04-24T04:58:42.699Z,1712
2016-04-24T04:59:42.763Z,2100
2016-04-24T05:00:42.672Z,1876
2016-04-24T05:01:42.815Z,2188
2016-04-24T05:02:42.850Z,1928
2016-04-24T05:03:42.727Z,1948
2016-04-24T05:04:42.730Z,1996
2016-04-24T05:05:42.748Z,2172
2016-04-24T05:06:42.673Z,2128
2016-04-24T05:07:42.690Z,2100
2016-04-24T05:08:43.413Z,2160
2016-04-24T05:09:42.728Z,2168
2016-04-24T05:10:42.762Z,2236
2016-04-24T05:11:42.717Z,2312
2016-04-24T05:12:42.768Z,2388
2016-04-24T05:13:42.676Z,2472
2016-04-24T05:14:42.648Z,2368
2016-04-24T05:15:42.697Z,2368
2016-04-24T05:16:41.934Z,2560
2016-04-24T05:17:42.702Z,2616
2016-04-24T05:18:42.675Z,3060
2016-04-24T05:19:42.661Z,3820
2016-04-24T05:20:42.694Z,3136
2016-04-24T05:21:42.666Z,2744
2016-04-24T05:22:42.654Z,3440
2016-04-24T05:23:42.984Z,3436
2016-04-24T05:24:42.705Z,2976
2016-04-24T05:25:42.724Z,3028
2016-04-24T05:26:42.632Z,4432
2016-04-24T05:27:42.652Z,3756
2016-04-24T05:28:42.748Z,3744
2016-04-24T05:29:42.625Z,4288
2016-04-24T05:30:42.627Z,4152
2016-04-24T05:31:42.568Z,4296
2016-04-24T05:32:42.696Z,4892
2016-04-24T05:33:42.636Z,4568
2016-04-24T05:34:42.576Z,4740
2016-04-24T05:35:42.563Z,4856
2016-04-24T05:36:42.690Z,4492
2016-04-24T05:37:42.616Z,4892
2016-04-24T05:38:42.931Z,4996
2016-04-24T05:39:42.434Z,7948
2016-04-24T05:40:43.404Z,5124
2016-04-24T05:41:42.518Z,5144
2016-04-24T05:42:42.567Z,5296
2016-04-24T05:43:42.523Z,5280
2016-04-24T05:44:42.603Z,5084
2016-04-24T05:45:42.575Z,4576
2016-04-24T05:46:42.670Z,4520
2016-04-24T05:47:42.643Z,4336
2016-04-24T05:48:42.598Z,4512
2016-04-24T05:49:42.554Z,5168
2016-04-24T05:50:42.588Z,5584
2016-04-24T05:51:42.638Z,5992
2016-04-24T05:52:42.547Z,6296
2016-04-24T05:53:42.487Z,6620
2016-04-24T05:54:42.536Z,6852
2016-04-24T05:55:42.602Z,6940
2016-04-24T05:56:42.510Z,6860
2016-04-24T05:57:42.607Z,6604
2016-04-24T05:58:42.594Z,6420
2016-04-24T05:59:42.519Z,6168
2016-04-24T06:00:42.568Z,5548
2016-04-24T06:01:42.493Z,5732
2016-04-24T06:02:42.558Z,5252
2016-04-24T06:03:42.466Z,4736
2016-04-24T06:04:42.594Z,4636
2016-04-24T06:05:42.644Z,4628
2016-04-24T06:06:42.537Z,4728
2016-04-24T06:07:42.493Z,4884
2016-04-24T06:08:43.090Z,5152
2016-04-24T06:09:42.561Z,5204
2016-04-24T06:10:42.735Z,5172
2016-04-24T06:11:42.473Z,5064
2016-04-24T06:12:42.632Z,4884
2016-04-24T06:13:41.775Z,4740
2016-04-24T06:14:42.575Z,5064
2016-04-24T06:15:42.592Z,4468
2016-04-24T06:16:42.595Z,4464
2016-04-24T06:17:42.504Z,4524
2016-04-24T06:18:42.570Z,4624
2016-04-24T06:19:42.666Z,4668
2016-04-24T06:20:42.559Z,4860
2016-04-24T06:21:42.468Z,5048
2016-04-24T06:22:42.492Z,5736
2016-04-24T06:23:42.589Z,5560
2016-04-24T06:24:42.529Z,6024
2016-04-24T06:25:42.531Z,6312
2016-04-24T06:26:42.456Z,6788
2016-04-24T06:27:42.537Z,6844
2016-04-24T06:28:42.384Z,6920
2016-04-24T06:29:42.511Z,6956
2016-04-24T06:30:42.498Z,7312
2016-04-24T06:31:42.517Z,7168
2016-04-24T06:32:42.411Z,7016
2016-04-24T06:33:42.475Z,8272
2016-04-24T06:34:42.494Z,7236
2016-04-24T06:35:42.386Z,10972
2016-04-24T06:36:42.593Z,10932
2016-04-24T06:37:42.814Z,10836
2016-04-24T06:38:42.895Z,10392
2016-04-24T06:39:42.522Z,11304
2016-04-24T06:40:42.432Z,11036
2016-04-24T06:41:42.434Z,11188
2016-04-24T06:42:42.422Z,11328
2016-04-24T06:43:42.470Z,11612
2016-04-24T06:44:42.443Z,11908
2016-04-24T06:45:42.523Z,12188
2016-04-24T06:46:42.463Z,12376
2016-04-24T06:47:42.418Z,12408
2016-04-24T06:48:42.313Z,12468
2016-04-24T06:49:42.487Z,12472
2016-04-24T06:50:42.506Z,12496
2016-04-24T06:51:42.398Z,12556
2016-04-24T06:52:42.418Z,12524
2016-04-24T06:53:43.857Z,12860
2016-04-24T06:54:42.501Z,13116
2016-04-24T06:55:42.456Z,13168
2016-04-24T06:56:42.506Z,12824
2016-04-24T06:57:42.477Z,7548
2016-04-24T06:58:42.465Z,11488
2016-04-24T06:59:42.561Z,11948
2016-04-24T07:00:42.439Z,9680
2016-04-24T07:01:42.441Z,11900
2016-04-24T07:02:42.616Z,8000
2016-04-24T07:03:42.493Z,6120
2016-04-24T07:04:42.496Z,5912
2016-04-24T07:05:42.452Z,11764
2016-04-24T07:06:42.470Z,11520
2016-04-24T07:07:42.535Z,12152
2016-04-24T07:08:42.772Z,12092
2016-04-24T07:09:42.588Z,10392
2016-04-24T07:10:42.528Z,7736
2016-04-24T07:11:42.577Z,8056
2016-04-24T07:12:42.502Z,5964
2016-04-24T07:13:42.521Z,10668
2016-04-24T07:14:42.523Z,9516
2016-04-24T07:15:42.557Z,9560
2016-04-24T07:16:42.497Z,9888
2016-04-24T07:17:42.671Z,10120
2016-04-24T07:18:42.484Z,10256
2016-04-24T07:19:42.471Z,10128
2016-04-24T07:20:42.758Z,10260
2016-04-24T07:21:42.493Z,11276
2016-04-24T07:22:42.496Z,11432
2016-04-24T07:23:42.592Z,11912
2016-04-24T07:24:42.484Z,11928
2016-04-24T07:25:42.534Z,11940
2016-04-24T07:26:42.536Z,11832
2016-04-24T07:27:42.556Z,11244
2016-04-24T07:28:42.668Z,10276
2016-04-24T07:29:42.576Z,9484
2016-04-24T07:30:42.485Z,9300
2016-04-24T07:31:42.629Z,8928
2016-04-24T07:32:42.537Z,9020
2016-04-24T07:33:42.540Z,9420
2016-04-24T07:34:42.559Z,10132
2016-04-24T07:35:42.577Z,10404
2016-04-24T07:36:42.548Z,10856
2016-04-24T07:37:42.597Z,10848
2016-04-24T07:38:43.022Z,10536
2016-04-24T07:39:42.666Z,11736
2016-04-24T07:40:42.638Z,12124
2016-04-24T07:41:42.686Z,12832
2016-04-24T07:42:42.768Z,13052
2016-04-24T07:43:42.645Z,13236
2016-04-24T07:44:42.632Z,13216
2016-04-24T07:45:42.791Z,8144
2016-04-24T07:46:42.716Z,8688
2016-04-24T07:47:42.562Z,9124
2016-04-24T07:48:42.690Z,7880
2016-04-24T07:49:42.754Z,8036
2016-04-24T07:50:42.680Z,7736
2016-04-24T07:51:42.635Z,13072
2016-04-24T07:52:42.763Z,13248
2016-04-24T07:53:42.734Z,13296
2016-04-24T07:54:43.190Z,7868
2016-04-24T07:55:42.692Z,8036
2016-04-24T07:56:42.727Z,8376
2016-04-24T07:57:42.746Z,9356
2016-04-24T07:58:42.795Z,13772
2016-04-24T07:59:42.781Z,9220
2016-04-24T08:00:42.800Z,8652
2016-04-24T08:01:42.600Z,12396
2016-04-24T08:02:42.617Z,9484
2016-04-24T08:03:42.668Z,7668
2016-04-24T08:04:42.561Z,7412
2016-04-24T08:05:42.705Z,7244
2016-04-24T08:06:42.660Z,7116
2016-04-24T08:07:42.741Z,7180
2016-04-24T08:08:42.697Z,7452
2016-04-24T08:09:42.356Z,10292
2016-04-24T08:10:42.655Z,12376
2016-04-24T08:11:42.627Z,8124
2016-04-24T08:12:42.644Z,12444
2016-04-24T08:13:42.663Z,10280
2016-04-24T08:14:42.588Z,9612
2016-04-24T08:15:42.575Z,12864
2016-04-24T08:16:42.655Z,12836
2016-04-24T08:17:41.846Z,12740
2016-04-24T08:18:42.582Z,12440
2016-04-24T08:19:42.743Z,12232
2016-04-24T08:20:42.651Z,11860
2016-04-24T08:21:42.560Z,11716
2016-04-24T08:22:42.610Z,11488
2016-04-24T08:23:42.315Z,11804
2016-04-24T08:24:42.848Z,11328
2016-04-24T08:25:42.743Z,12088
2016-04-24T08:26:42.729Z,12260
2016-04-24T08:27:42.623Z,12260
2016-04-24T08:28:43.062Z,11992
2016-04-24T08:29:42.753Z,11436
2016-04-24T08:30:42.772Z,11004
2016-04-24T08:31:42.696Z,11008
2016-04-24T08:32:42.668Z,10656
2016-04-24T08:33:42.748Z,7944
2016-04-24T08:34:42.673Z,10492
2016-04-24T08:35:42.769Z,7872
2016-04-24T08:36:42.709Z,7948
2016-04-24T08:37:42.650Z,10332
2016-04-24T08:38:43.418Z,8224
2016-04-24T08:39:42.702Z,8316
2016-04-24T08:40:42.674Z,10620
2016-04-24T08:41:42.723Z,11208
2016-04-24T08:42:42.710Z,11556
2016-04-24T08:43:42.635Z,12040
2016-04-24T08:44:42.669Z,12116
2016-04-24T08:45:42.655Z,12352
2016-04-24T08:46:42.752Z,11916
2016-04-24T08:47:42.708Z,11220
2016-04-24T08:48:42.804Z,10852
2016-04-24T08:49:42.713Z,10780
2016-04-24T08:50:42.637Z,11060
2016-04-24T08:51:42.813Z,11496
2016-04-24T08:52:42.738Z,12068
2016-04-24T08:53:42.693Z,11244
2016-04-24T08:54:43.523Z,10208
2016-04-24T08:55:42.760Z,10616
2016-04-24T08:56:42.779Z,11488
2016-04-24T08:57:42.859Z,11284
2016-04-24T08:58:42.753Z,10580
2016-04-24T08:59:42.771Z,9724
2016-04-24T09:00:42.774Z,11600
2016-04-24T09:01:42.808Z,10912
2016-04-24T09:02:42.826Z,10140
2016-04-24T09:03:42.814Z,10300
2016-04-24T09:04:42.706Z,9720
2016-04-24T09:05:42.756Z,8024
2016-04-24T09:06:42.712Z,8884
2016-04-24T09:07:42.839Z,7248
2016-04-24T09:08:42.749Z,7232
2016-04-24T09:09:42.814Z,7752
2016-04-24T09:10:42.786Z,7752
2016-04-24T09:11:42.633Z,7960
2016-04-24T09:12:42.697Z,8080
2016-04-24T09:13:42.684Z,8248
2016-04-24T09:14:42.733Z,8424
2016-04-24T09:15:42.799Z,8564
2016-04-24T09:16:42.724Z,8644
2016-04-24T09:17:42.788Z,8640
2016-04-24T09:18:42.729Z,8608
2016-04-24T09:19:42.825Z,8608
2016-04-24T09:20:42.703Z,8688
2016-04-24T09:21:42.690Z,8964
2016-04-24T09:22:42.724Z,9508
2016-04-24T09:23:42.757Z,9884
2016-04-24T09:24:42.557Z,10004
2016-04-24T09:25:42.779Z,10336
2016-04-24T09:26:42.719Z,11324
2016-04-24T09:27:42.659Z,11424
2016-04-24T09:28:42.693Z,10492
2016-04-24T09:29:42.868Z,10620
2016-04-24T09:30:42.714Z,11864
2016-04-24T09:31:42.764Z,10424
2016-04-24T09:32:42.516Z,9920
2016-04-24T09:33:42.801Z,9952
2016-04-24T09:34:42.740Z,9900
2016-04-24T09:35:42.790Z,10224
2016-04-24T09:36:42.684Z,9584
2016-04-24T09:37:43.045Z,9572
2016-04-24T09:38:42.736Z,9716
2016-04-24T09:39:42.800Z,9860
2016-04-24T09:40:42.851Z,9696
2016-04-24T09:41:43.056Z,9244
2016-04-24T09:42:42.684Z,8888
2016-04-24T09:43:42.672Z,8580
2016-04-24T09:44:42.689Z,8012
2016-04-24T09:45:42.708Z,7596
2016-04-24T09:46:42.883Z,7568
2016-04-24T09:47:42.823Z,7536
2016-04-24T09:48:42.747Z,7648
2016-04-24T09:49:42.719Z,8312
2016-04-24T09:50:43.002Z,8384
2016-04-24T09:51:42.802Z,8888
2016-04-24T09:52:43.101Z,9304
2016-04-24T09:53:42.714Z,9640
2016-04-24T09:54:42.701Z,10000
2016-04-24T09:55:42.844Z,10232
2016-04-24T09:56:42.721Z,10404
2016-04-24T09:57:42.787Z,10496
2016-04-24T09:58:42.712Z,10440
2016-04-24T09:59:42.729Z,10344
2016-04-24T10:00:42.701Z,10276
2016-04-24T10:01:42.798Z,10264
2016-04-24T10:02:42.926Z,10304
2016-04-24T10:03:43.053Z,10272
2016-04-24T10:04:42.696Z,10148
2016-04-24T10:05:42.699Z,10500
2016-04-24T10:06:42.592Z,9996
2016-04-24T10:07:42.626Z,10044
2016-04-24T10:08:42.692Z,10392
2016-04-24T10:09:42.570Z,11884
2016-04-24T10:10:42.666Z,11248
2016-04-24T10:11:42.825Z,11376
2016-04-24T10:12:42.781Z,13180
2016-04-24T10:13:42.736Z,12880
2016-04-24T10:14:42.739Z,13496
2016-04-24T10:15:42.789Z,11464
2016-04-24T10:16:42.619Z,10832
2016-04-24T10:17:42.685Z,10428
2016-04-24T10:18:42.625Z,9892
2016-04-24T10:19:42.674Z,9520
2016-04-24T10:20:42.865Z,9132
2016-04-24T10:21:42.680Z,8796
2016-04-24T10:22:42.729Z,8532
2016-04-24T10:23:42.716Z,8416
2016-04-24T10:24:42.656Z,8484
2016-04-24T10:25:42.707Z,8680
2016-04-24T10:26:42.771Z,9000
2016-04-24T10:27:42.727Z,9408
2016-04-24T10:28:42.682Z,9908
2016-04-24T10:29:42.764Z,10192
2016-04-24T10:30:42.626Z,10224
2016-04-24T10:31:42.691Z,10108
2016-04-24T10:32:42.615Z,9904
2016-04-24T10:33:42.790Z,9588
2016-04-24T10:34:42.731Z,9400
2016-04-24T10:35:42.671Z,10352
2016-04-24T10:36:42.705Z,11080
2016-04-24T10:37:42.801Z,10956
2016-04-24T10:38:42.662Z,11004
2016-04-24T10:39:43.400Z,10948
2016-04-24T10:40:42.981Z,10908
2016-04-24T10:41:42.749Z,10512
2016-04-24T10:42:42.689Z,8956
2016-04-24T10:43:42.755Z,8648
2016-04-24T10:44:42.664Z,7880
2016-04-24T10:45:42.667Z,7232
2016-04-24T10:46:42.653Z,6776
2016-04-24T10:47:42.796Z,6416
2016-04-24T10:48:42.644Z,6108
2016-04-24T10:49:42.786Z,5860
2016-04-24T10:50:42.727Z,5720
2016-04-24T10:51:42.636Z,5832
2016-04-24T10:52:42.685Z,6440
2016-04-24T10:53:42.625Z,7464
2016-04-24T10:54:42.706Z,8480
2016-04-24T10:55:42.865Z,9116
2016-04-24T10:56:42.743Z,9580
2016-04-24T10:57:42.652Z,10576
2016-04-24T10:58:42.623Z,11460
2016-04-24T10:59:42.695Z,10764
2016-04-24T11:00:42.769Z,10892
2016-04-24T11:01:42.767Z,11700
2016-04-24T11:02:42.826Z,11740
2016-04-24T11:03:42.839Z,11824
2016-04-24T11:04:42.878Z,11656
2016-04-24T11:05:43.021Z,11620
2016-04-24T11:06:42.758Z,11460
2016-04-24T11:07:42.900Z,11372
2016-04-24T11:08:42.965Z,11360
2016-04-24T11:09:42.856Z,11188
2016-04-24T11:10:43.115Z,11348
2016-04-24T11:11:42.981Z,11316
2016-04-24T11:12:42.943Z,10100
2016-04-24T11:13:42.982Z,10004
2016-04-24T11:14:42.989Z,11220
2016-04-24T11:15:43.088Z,11068
2016-04-24T11:16:42.889Z,11344
2016-04-24T11:17:43.035Z,11572
2016-04-24T11:18:42.961Z,11756
2016-04-24T11:19:43.106Z,11936
2016-04-24T11:20:43.047Z,12048
2016-04-24T11:21:42.987Z,11960
2016-04-24T11:22:42.943Z,12088
2016-04-24T11:23:42.946Z,11968
2016-04-24T11:24:44.012Z,11576
2016-04-24T11:25:42.937Z,11520
2016-04-24T11:26:43.190Z,10780
2016-04-24T11:27:43.022Z,10344
2016-04-24T11:28:43.164Z,10432
2016-04-24T11:29:42.996Z,10560
2016-04-24T11:30:43.124Z,10752
2016-04-24T11:31:43.001Z,12268
2016-04-24T11:32:43.020Z,12480
2016-04-24T11:33:42.960Z,11508
2016-04-24T11:34:42.931Z,11628
2016-04-24T11:35:42.996Z,12696
2016-04-24T11:36:42.983Z,12324
2016-04-24T11:37:42.986Z,12208
2016-04-24T11:38:42.130Z,12012
2016-04-24T11:39:43.054Z,11924
2016-04-24T11:40:43.322Z,11512
2016-04-24T11:41:42.981Z,10344
2016-04-24T11:42:43.015Z,9412
2016-04-24T11:43:42.972Z,8388
2016-04-24T11:44:42.958Z,7676
2016-04-24T11:45:42.960Z,7172
2016-04-24T11:46:43.026Z,7020
2016-04-24T11:47:43.013Z,7004
2016-04-24T11:48:43.016Z,7028
2016-04-24T11:49:43.003Z,6948
2016-04-24T11:50:42.974Z,6688
2016-04-24T11:51:42.930Z,6360
2016-04-24T11:52:43.121Z,6116
2016-04-24T11:53:43.029Z,5656
2016-04-24T11:54:43.220Z,5604
2016-04-24T11:55:43.004Z,6244
2016-04-24T11:56:42.897Z,6444
2016-04-24T11:57:42.962Z,6192
2016-04-24T11:58:42.903Z,5688
2016-04-24T11:59:43.061Z,5880
2016-04-24T12:00:43.064Z,7120
2016-04-24T12:01:42.972Z,8944
2016-04-24T12:02:42.959Z,9924
2016-04-24T12:03:42.994Z,10564
2016-04-24T12:04:43.059Z,10956
2016-04-24T12:05:43.014Z,11572
2016-04-24T12:06:43.033Z,10424
2016-04-24T12:07:42.911Z,10028
2016-04-24T12:08:43.194Z,9856
2016-04-24T12:09:43.369Z,9912
2016-04-24T12:10:43.325Z,10088
2016-04-24T12:11:43.015Z,10456
2016-04-24T12:12:43.065Z,10752
2016-04-24T12:13:42.927Z,10652
2016-04-24T12:14:43.101Z,10572
2016-04-24T12:15:43.073Z,10544
2016-04-24T12:16:42.919Z,10540
2016-04-24T12:17:42.907Z,10468
2016-04-24T12:18:42.971Z,10312
2016-04-24T12:19:42.990Z,10004
2016-04-24T12:20:43.023Z,9864
2016-04-24T12:21:42.807Z,10048
2016-04-24T12:22:42.904Z,10236
2016-04-24T12:23:42.937Z,10432
2016-04-24T12:24:42.754Z,10720
2016-04-24T12:25:43.084Z,10860
2016-04-24T12:26:42.978Z,10708
2016-04-24T12:27:42.934Z,10900
2016-04-24T12:28:42.920Z,11500
2016-04-24T12:29:43.064Z,11612
2016-04-24T12:30:42.926Z,10352
2016-04-24T12:31:42.975Z,8904
2016-04-24T12:32:42.931Z,7440
2016-04-24T12:33:42.965Z,6632
2016-04-24T12:34:42.936Z,6428
2016-04-24T12:35:42.986Z,6664
2016-04-24T12:36:42.942Z,7120
2016-04-24T12:37:43.069Z,7404
2016-04-24T12:38:42.885Z,7668
2016-04-24T12:39:43.028Z,7916
2016-04-24T12:40:43.077Z,8036
2016-04-24T12:41:42.971Z,8124
2016-04-24T12:42:42.958Z,8148
2016-04-24T12:43:42.804Z,8344
2016-04-24T12:44:42.963Z,8416
2016-04-24T12:45:43.044Z,8432
2016-04-24T12:46:42.875Z,8304
2016-04-24T12:47:43.019Z,8012
2016-04-24T12:48:42.912Z,7760
2016-04-24T12:49:42.976Z,7532
2016-04-24T12:50:42.996Z,7284
2016-04-24T12:51:42.935Z,7064
2016-04-24T12:52:43.001Z,6928
2016-04-24T12:53:42.872Z,7268
2016-04-24T12:54:43.061Z,8496
2016-04-24T12:55:42.939Z,9852
2016-04-24T12:56:42.910Z,10588
2016-04-24T12:57:42.836Z,10872
2016-04-24T12:58:42.979Z,10912
2016-04-24T12:59:42.935Z,10952
2016-04-24T13:00:42.905Z,10980
2016-04-24T13:01:42.846Z,10904
2016-04-24T13:02:42.833Z,10816
2016-04-24T13:03:42.946Z,10840
2016-04-24T13:04:42.854Z,10932
2016-04-24T13:05:43.185Z,11176
2016-04-24T13:06:42.921Z,11524
2016-04-24T13:07:42.971Z,11704
2016-04-24T13:08:42.927Z,11804
2016-04-24T13:09:44.226Z,11468
2016-04-24T13:10:43.808Z,11712
2016-04-24T13:11:44.482Z,11528
2016-04-24T13:12:43.110Z,11216
2016-04-24T13:13:43.737Z,10872
2016-04-24T13:14:43.037Z,10424
2016-04-24T13:15:42.977Z,9828
2016-04-24T13:16:42.886Z,9692
2016-04-24T13:17:42.936Z,10028
2016-04-24T13:18:42.814Z,10408
2016-04-24T13:19:42.847Z,11024
2016-04-24T13:20:42.975Z,11132
2016-04-24T13:21:42.916Z,11104
2016-04-24T13:22:42.919Z,10900
2016-04-24T13:23:42.858Z,11200
2016-04-24T13:24:43.252Z,10840
2016-04-24T13:25:43.364Z,11060
2016-04-24T13:26:42.898Z,10848
2016-04-24T13:27:42.025Z,10384
2016-04-24T13:28:42.872Z,9792
2016-04-24T13:29:42.875Z,8992
2016-04-24T13:30:42.893Z,8012
2016-04-24T13:31:42.927Z,7192
2016-04-24T13:32:42.821Z,6700
2016-04-24T13:33:42.869Z,6196
2016-04-24T13:34:42.871Z,5912
2016-04-24T13:35:42.921Z,5736
2016-04-24T13:36:42.924Z,5748